Etusivu
METAR-TAF:

METAR-TAF

Lentoasemat :

Genova, Italia

Leveyspiiri: 44-25N, Pituuspiiri: 008-51E, korkeus merenpinnasta: 2 m

Tämänhetkinen sää

Tämä raportti tehtiin 21 minuuttia sitten, kello 15.20 UTC
Tuuli 9 kn pohjoisen/luoteesta, vaihdellen luoteen ja pohjoisen välillä
Lämpötila 17°C
Kosteus 25%
Ilmanpaine 1027 hPa
Näkyvyys 10 km tai enemmän
ei pilviä alle 1500 m:ssä eikä cumulonimbus-pilviä

METAR: LIMJ 211520Z 34009KT 310V010 CAVOK 17/M03 Q1027

Aika: 16:41 (15:41 UTC)

Sääennuste

Tämä raportti tehtiin 4 tuntia ja 41 minuuttia sitten, kello 11.00 UTC
Ennuste voimassa 21. päivästä klo 12 UTC - 22. päivään klo 12 UTC
Tuuli 10 kn pohjoisesta/koillisesta
Näkyvyys 10 km tai enemmän
ei pilviä alle 1500 m:ssä eikä cumulonimbus-pilviä
Ajoittain
21. päivästä klo 12 UTC - 21. päivään klo 18 UTC
Tuuli 15 kn pohjoisesta/koillisesta puuskistuen 25 kn:hen

TAF: LIMJ 211100Z 2112/2212 02010KT CAVOK TEMPO 2112/2118 02015G25KT

Säähavainnot ja -ennusteet yli 4000 lentoasemalta (METAR- ja TAF-raportit).

Käytössä olevat sääasemat on merkitty karttaan keltaisilla ja punaisilla pisteillä.

Aseta hiiri pisteen päälle nähdäksesi sääaseman nimen.

Klikkaa sitten nähdäksesi säähavainnot ja -ennusteet.

Kartan vaihtaminen: klikkaa mustalla rastilla varustettuja vihreitä pisteitä, niin voit zoomata sisään; viivalla varustettua vihreää pistettä, niin voit zoomata ulos tai vihreitä nuolia, niin pääset viereisille kartoille.


METAR-TAF: